sensor_id;sensor_type;location;lat;lon;timestamp;temperature;humidity
6439;DHT22;3252;52.540;13.290;2022-09-03T00:00:13;16.20;82.70
6439;DHT22;3252;52.540;13.290;2022-09-03T00:02:21;16.20;82.90
6439;DHT22;3252;52.540;13.290;2022-09-03T00:04:29;16.20;83.00
6439;DHT22;3252;52.540;13.290;2022-09-03T00:06:38;16.20;83.10
6439;DHT22;3252;52.540;13.290;2022-09-03T00:08:44;16.10;82.90
6439;DHT22;3252;52.540;13.290;2022-09-03T00:10:50;16.10;82.50
6439;DHT22;3252;52.540;13.290;2022-09-03T00:12:58;16.10;83.00
6439;DHT22;3252;52.540;13.290;2022-09-03T00:15:05;16.10;82.80
6439;DHT22;3252;52.540;13.290;2022-09-03T00:17:11;16.10;82.80
6439;DHT22;3252;52.540;13.290;2022-09-03T00:19:19;16.10;83.10
6439;DHT22;3252;52.540;13.290;2022-09-03T00:21:31;16.10;83.00
6439;DHT22;3252;52.540;13.290;2022-09-03T00:23:37;16.10;83.20
6439;DHT22;3252;52.540;13.290;2022-09-03T00:25:45;16.20;83.50
6439;DHT22;3252;52.540;13.290;2022-09-03T00:27:53;16.10;83.60
6439;DHT22;3252;52.540;13.290;2022-09-03T00:29:58;16.10;83.10
6439;DHT22;3252;52.540;13.290;2022-09-03T00:32:08;16.10;83.20
6439;DHT22;3252;52.540;13.290;2022-09-03T00:34:23;16.10;83.00
6439;DHT22;3252;52.540;13.290;2022-09-03T00:36:32;16.10;83.40
6439;DHT22;3252;52.540;13.290;2022-09-03T00:38:36;16.00;83.60
6439;DHT22;3252;52.540;13.290;2022-09-03T00:40:49;16.10;83.80
6439;DHT22;3252;52.540;13.290;2022-09-03T00:43:00;16.00;84.10
6439;DHT22;3252;52.540;13.290;2022-09-03T00:45:12;16.00;84.20
6439;DHT22;3252;52.540;13.290;2022-09-03T00:47:24;16.00;84.30
6439;DHT22;3252;52.540;13.290;2022-09-03T00:49:37;16.00;84.60
6439;DHT22;3252;52.540;13.290;2022-09-03T00:51:49;16.00;84.40
6439;DHT22;3252;52.540;13.290;2022-09-03T00:54:00;16.00;84.20
6439;DHT22;3252;52.540;13.290;2022-09-03T00:56:13;16.00;84.40
6439;DHT22;3252;52.540;13.290;2022-09-03T00:58:32;16.00;84.50
6439;DHT22;3252;52.540;13.290;2022-09-03T01:00:40;16.00;84.80
6439;DHT22;3252;52.540;13.290;2022-09-03T01:02:55;16.00;84.90
6439;DHT22;3252;52.540;13.290;2022-09-03T01:05:06;15.90;85.00
6439;DHT22;3252;52.540;13.290;2022-09-03T01:07:17;15.90;85.40
6439;DHT22;3252;52.540;13.290;2022-09-03T01:09:32;15.90;85.70
6439;DHT22;3252;52.540;13.290;2022-09-03T01:11:43;15.90;85.70
6439;DHT22;3252;52.540;13.290;2022-09-03T01:13:54;15.90;86.00
6439;DHT22;3252;52.540;13.290;2022-09-03T01:16:06;15.80;85.60
6439;DHT22;3252;52.540;13.290;2022-09-03T01:18:17;15.80;85.70
6439;DHT22;3252;52.540;13.290;2022-09-03T01:20:28;15.80;85.80
6439;DHT22;3252;52.540;13.290;2022-09-03T01:23:12;15.80;86.20
6439;DHT22;3252;52.540;13.290;2022-09-03T01:25:30;15.70;86.10
6439;DHT22;3252;52.540;13.290;2022-09-03T01:27:45;15.70;86.40
6439;DHT22;3252;52.540;13.290;2022-09-03T01:29:55;15.70;86.40
6439;DHT22;3252;52.540;13.290;2022-09-03T01:32:14;15.60;86.60
6439;DHT22;3252;52.540;13.290;2022-09-03T01:34:29;15.60;86.80
6439;DHT22;3252;52.540;13.290;2022-09-03T01:36:38;15.60;86.80
6439;DHT22;3252;52.540;13.290;2022-09-03T01:38:48;15.60;87.00
6439;DHT22;3252;52.540;13.290;2022-09-03T01:40:56;15.60;86.90
6439;DHT22;3252;52.540;13.290;2022-09-03T01:43:36;15.60;86.90
6439;DHT22;3252;52.540;13.290;2022-09-03T01:45:50;15.60;87.30
6439;DHT22;3252;52.540;13.290;2022-09-03T01:48:07;15.60;87.10
6439;DHT22;3252;52.540;13.290;2022-09-03T01:50:20;15.60;87.40
6439;DHT22;3252;52.540;13.290;2022-09-03T01:52:39;15.60;87.50
6439;DHT22;3252;52.540;13.290;2022-09-03T01:54:51;15.60;87.50
6439;DHT22;3252;52.540;13.290;2022-09-03T01:59:40;15.60;87.50
6439;DHT22;3252;52.540;13.290;2022-09-03T02:01:47;15.60;87.40
6439;DHT22;3252;52.540;13.290;2022-09-03T02:03:51;15.60;87.60
6439;DHT22;3252;52.540;13.290;2022-09-03T02:06:00;15.60;87.60
6439;DHT22;3252;52.540;13.290;2022-09-03T02:08:05;15.60;87.80
6439;DHT22;3252;52.540;13.290;2022-09-03T02:10:11;15.60;87.80
6439;DHT22;3252;52.540;13.290;2022-09-03T02:12:15;15.50;88.00
6439;DHT22;3252;52.540;13.290;2022-09-03T02:14:18;15.50;88.30
6439;DHT22;3252;52.540;13.290;2022-09-03T02:16:22;15.50;88.30
6439;DHT22;3252;52.540;13.290;2022-09-03T02:18:30;15.50;88.50
6439;DHT22;3252;52.540;13.290;2022-09-03T02:20:33;15.40;88.50
6439;DHT22;3252;52.540;13.290;2022-09-03T02:22:35;15.40;88.60
6439;DHT22;3252;52.540;13.290;2022-09-03T02:24:37;15.40;88.70
6439;DHT22;3252;52.540;13.290;2022-09-03T02:26:38;15.40;88.70
6439;DHT22;3252;52.540;13.290;2022-09-03T02:28:41;15.40;88.80
6439;DHT22;3252;52.540;13.290;2022-09-03T02:30:43;15.40;88.70
6439;DHT22;3252;52.540;13.290;2022-09-03T02:32:46;15.30;88.70
6439;DHT22;3252;52.540;13.290;2022-09-03T02:34:49;15.40;88.90
6439;DHT22;3252;52.540;13.290;2022-09-03T02:36:51;15.30;88.70
6439;DHT22;3252;52.540;13.290;2022-09-03T02:38:54;15.30;88.90
6439;DHT22;3252;52.540;13.290;2022-09-03T02:40:56;15.30;88.70
6439;DHT22;3252;52.540;13.290;2022-09-03T02:42:58;15.20;88.70
6439;DHT22;3252;52.540;13.290;2022-09-03T02:45:09;15.20;88.80
6439;DHT22;3252;52.540;13.290;2022-09-03T02:47:14;15.20;89.20
6439;DHT22;3252;52.540;13.290;2022-09-03T02:49:17;15.20;89.40
6439;DHT22;3252;52.540;13.290;2022-09-03T02:51:21;15.20;89.40
6439;DHT22;3252;52.540;13.290;2022-09-03T02:53:23;15.20;89.70
6439;DHT22;3252;52.540;13.290;2022-09-03T02:55:27;15.20;89.60
6439;DHT22;3252;52.540;13.290;2022-09-03T02:57:29;15.20;90.00
6439;DHT22;3252;52.540;13.290;2022-09-03T02:59:32;15.10;90.00
6439;DHT22;3252;52.540;13.290;2022-09-03T03:01:35;15.10;90.20
6439;DHT22;3252;52.540;13.290;2022-09-03T03:03:37;15.10;90.20
6439;DHT22;3252;52.540;13.290;2022-09-03T03:05:44;15.10;90.10
6439;DHT22;3252;52.540;13.290;2022-09-03T03:07:48;15.10;90.40
6439;DHT22;3252;52.540;13.290;2022-09-03T03:09:50;15.10;90.50
6439;DHT22;3252;52.540;13.290;2022-09-03T03:11:52;15.10;90.60
6439;DHT22;3252;52.540;13.290;2022-09-03T03:13:55;15.00;91.00
6439;DHT22;3252;52.540;13.290;2022-09-03T03:15:57;15.00;90.90
6439;DHT22;3252;52.540;13.290;2022-09-03T03:18:00;15.00;91.00
6439;DHT22;3252;52.540;13.290;2022-09-03T03:20:02;15.00;91.30
6439;DHT22;3252;52.540;13.290;2022-09-03T03:22:04;15.00;91.20
6439;DHT22;3252;52.540;13.290;2022-09-03T03:24:08;15.00;91.40
6439;DHT22;3252;52.540;13.290;2022-09-03T03:26:12;14.90;92.00
6439;DHT22;3252;52.540;13.290;2022-09-03T03:28:15;14.90;91.90
6439;DHT22;3252;52.540;13.290;2022-09-03T03:30:18;14.90;93.50
6439;DHT22;3252;52.540;13.290;2022-09-03T03:32:20;14.80;93.80
6439;DHT22;3252;52.540;13.290;2022-09-03T03:34:22;14.70;94.00
6439;DHT22;3252;52.540;13.290;2022-09-03T03:36:26;14.70;94.30
6439;DHT22;3252;52.540;13.290;2022-09-03T03:38:28;14.60;94.30
6439;DHT22;3252;52.540;13.290;2022-09-03T03:40:32;14.50;94.60
6439;DHT22;3252;52.540;13.290;2022-09-03T03:42:34;14.40;94.70
6439;DHT22;3252;52.540;13.290;2022-09-03T03:44:36;14.40;94.70
6439;DHT22;3252;52.540;13.290;2022-09-03T03:46:40;14.30;95.20
6439;DHT22;3252;52.540;13.290;2022-09-03T03:48:42;14.20;95.70
6439;DHT22;3252;52.540;13.290;2022-09-03T03:50:43;14.10;96.00
6439;DHT22;3252;52.540;13.290;2022-09-03T03:52:47;14.10;96.10
6439;DHT22;3252;52.540;13.290;2022-09-03T03:54:49;14.00;96.40
6439;DHT22;3252;52.540;13.290;2022-09-03T03:56:52;13.90;96.90
6439;DHT22;3252;52.540;13.290;2022-09-03T03:58:55;13.80;97.50
6439;DHT22;3252;52.540;13.290;2022-09-03T04:01:04;13.70;97.30
6439;DHT22;3252;52.540;13.290;2022-09-03T04:03:06;13.60;97.90
6439;DHT22;3252;52.540;13.290;2022-09-03T04:05:11;13.60;98.20
6439;DHT22;3252;52.540;13.290;2022-09-03T04:07:13;13.50;98.20
6439;DHT22;3252;52.540;13.290;2022-09-03T04:09:15;13.50;98.40
6439;DHT22;3252;52.540;13.290;2022-09-03T04:11:19;13.40;98.50
6439;DHT22;3252;52.540;13.290;2022-09-03T04:13:23;13.30;98.90
6439;DHT22;3252;52.540;13.290;2022-09-03T04:15:25;13.30;99.10
6439;DHT22;3252;52.540;13.290;2022-09-03T04:17:27;13.30;99.30
6439;DHT22;3252;52.540;13.290;2022-09-03T04:19:29;13.20;99.60
6439;DHT22;3252;52.540;13.290;2022-09-03T04:21:32;13.20;99.80
6439;DHT22;3252;52.540;13.290;2022-09-03T04:23:35;13.20;99.90
6439;DHT22;3252;52.540;13.290;2022-09-03T04:25:37;13.10;99.90
6439;DHT22;3252;52.540;13.290;2022-09-03T04:27:41;13.10;99.90
6439;DHT22;3252;52.540;13.290;2022-09-03T04:29:45;13.00;99.90
6439;DHT22;3252;52.540;13.290;2022-09-03T04:31:47;13.00;99.90
6439;DHT22;3252;52.540;13.290;2022-09-03T04:34:03;13.00;99.90
6439;DHT22;3252;52.540;13.290;2022-09-03T04:36:08;13.00;99.90
6439;DHT22;3252;52.540;13.290;2022-09-03T04:38:10;13.10;99.60
6439;DHT22;3252;52.540;13.290;2022-09-03T04:40:12;13.10;99.30
6439;DHT22;3252;52.540;13.290;2022-09-03T04:42:14;13.10;99.80
6439;DHT22;3252;52.540;13.290;2022-09-03T04:44:16;13.10;99.90
6439;DHT22;3252;52.540;13.290;2022-09-03T04:46:21;13.10;99.80
6439;DHT22;3252;52.540;13.290;2022-09-03T04:48:23;13.10;99.80
6439;DHT22;3252;52.540;13.290;2022-09-03T04:50:25;13.20;99.90
6439;DHT22;3252;52.540;13.290;2022-09-03T04:52:32;13.20;99.60
6439;DHT22;3252;52.540;13.290;2022-09-03T04:54:34;13.20;99.20
6439;DHT22;3252;52.540;13.290;2022-09-03T04:56:38;13.20;99.00
6439;DHT22;3252;52.540;13.290;2022-09-03T04:58:41;13.30;99.00
6439;DHT22;3252;52.540;13.290;2022-09-03T05:00:43;13.30;98.80
6439;DHT22;3252;52.540;13.290;2022-09-03T05:02:48;13.40;99.20
6439;DHT22;3252;52.540;13.290;2022-09-03T05:04:51;13.40;99.10
6439;DHT22;3252;52.540;13.290;2022-09-03T05:06:53;13.40;98.80
6439;DHT22;3252;52.540;13.290;2022-09-03T05:08:56;13.50;98.60
6439;DHT22;3252;52.540;13.290;2022-09-03T05:10:58;13.50;98.40
6439;DHT22;3252;52.540;13.290;2022-09-03T05:13:02;13.60;98.70
6439;DHT22;3252;52.540;13.290;2022-09-03T05:15:05;13.60;98.70
6439;DHT22;3252;52.540;13.290;2022-09-03T05:17:07;13.70;98.60
6439;DHT22;3252;52.540;13.290;2022-09-03T05:19:11;13.70;98.70
6439;DHT22;3252;52.540;13.290;2022-09-03T05:21:14;13.70;98.70
6439;DHT22;3252;52.540;13.290;2022-09-03T05:23:16;13.70;98.50
6439;DHT22;3252;52.540;13.290;2022-09-03T05:25:19;13.80;98.50
6439;DHT22;3252;52.540;13.290;2022-09-03T05:27:22;13.80;98.40
6439;DHT22;3252;52.540;13.290;2022-09-03T05:29:24;13.80;98.30
6439;DHT22;3252;52.540;13.290;2022-09-03T05:31:28;13.90;98.10
6439;DHT22;3252;52.540;13.290;2022-09-03T05:33:33;14.00;98.20
6439;DHT22;3252;52.540;13.290;2022-09-03T05:35:36;14.00;98.10
6439;DHT22;3252;52.540;13.290;2022-09-03T05:37:41;14.10;98.30
6439;DHT22;3252;52.540;13.290;2022-09-03T05:39:43;14.10;98.10
6439;DHT22;3252;52.540;13.290;2022-09-03T05:41:45;14.20;98.00
6439;DHT22;3252;52.540;13.290;2022-09-03T05:43:51;14.20;97.80
6439;DHT22;3252;52.540;13.290;2022-09-03T05:45:56;14.30;97.80
6439;DHT22;3252;52.540;13.290;2022-09-03T05:48:00;14.30;97.70
6439;DHT22;3252;52.540;13.290;2022-09-03T05:50:02;14.30;97.60
6439;DHT22;3252;52.540;13.290;2022-09-03T05:52:06;14.40;97.50
6439;DHT22;3252;52.540;13.290;2022-09-03T05:54:08;14.40;97.40
6439;DHT22;3252;52.540;13.290;2022-09-03T05:56:11;14.50;97.40
6439;DHT22;3252;52.540;13.290;2022-09-03T05:58:13;14.60;97.40
6439;DHT22;3252;52.540;13.290;2022-09-03T06:00:16;14.60;97.40
6439;DHT22;3252;52.540;13.290;2022-09-03T06:02:19;14.70;97.20
6439;DHT22;3252;52.540;13.290;2022-09-03T06:04:21;14.70;97.20
6439;DHT22;3252;52.540;13.290;2022-09-03T06:06:23;14.80;97.20
6439;DHT22;3252;52.540;13.290;2022-09-03T06:08:28;14.90;97.20
6439;DHT22;3252;52.540;13.290;2022-09-03T06:10:30;14.90;97.10
6439;DHT22;3252;52.540;13.290;2022-09-03T06:12:32;15.00;97.00
6439;DHT22;3252;52.540;13.290;2022-09-03T06:14:34;15.00;97.00
6439;DHT22;3252;52.540;13.290;2022-09-03T06:16:38;15.00;96.90
6439;DHT22;3252;52.540;13.290;2022-09-03T06:18:41;15.00;96.70
6439;DHT22;3252;52.540;13.290;2022-09-03T06:20:43;15.00;96.80
6439;DHT22;3252;52.540;13.290;2022-09-03T06:22:54;15.00;96.90
6439;DHT22;3252;52.540;13.290;2022-09-03T06:24:57;15.00;97.20
6439;DHT22;3252;52.540;13.290;2022-09-03T06:26:59;15.00;96.80
6439;DHT22;3252;52.540;13.290;2022-09-03T06:29:01;15.00;96.90
6439;DHT22;3252;52.540;13.290;2022-09-03T06:31:05;15.10;97.10
6439;DHT22;3252;52.540;13.290;2022-09-03T06:33:07;15.10;97.80
6439;DHT22;3252;52.540;13.290;2022-09-03T06:35:09;15.20;97.60
6439;DHT22;3252;52.540;13.290;2022-09-03T06:37:12;15.20;97.70
6439;DHT22;3252;52.540;13.290;2022-09-03T06:39:14;15.20;97.90
6439;DHT22;3252;52.540;13.290;2022-09-03T06:41:19;15.20;99.10
6439;DHT22;3252;52.540;13.290;2022-09-03T06:43:24;15.30;97.20
6439;DHT22;3252;52.540;13.290;2022-09-03T06:45:27;15.30;97.30
6439;DHT22;3252;52.540;13.290;2022-09-03T06:47:29;15.30;96.70
6439;DHT22;3252;52.540;13.290;2022-09-03T06:49:32;15.40;97.50
6439;DHT22;3252;52.540;13.290;2022-09-03T06:51:36;15.50;97.20
6439;DHT22;3252;52.540;13.290;2022-09-03T06:53:40;15.50;96.50
6439;DHT22;3252;52.540;13.290;2022-09-03T06:55:42;15.50;96.30
6439;DHT22;3252;52.540;13.290;2022-09-03T06:57:46;15.50;96.00
6439;DHT22;3252;52.540;13.290;2022-09-03T06:59:49;15.50;96.20
6439;DHT22;3252;52.540;13.290;2022-09-03T07:01:51;15.60;96.00
6439;DHT22;3252;52.540;13.290;2022-09-03T07:03:54;15.60;96.10
6439;DHT22;3252;52.540;13.290;2022-09-03T07:05:59;15.60;96.00
6439;DHT22;3252;52.540;13.290;2022-09-03T07:08:02;15.70;95.90
6439;DHT22;3252;52.540;13.290;2022-09-03T07:10:05;15.70;95.70
6439;DHT22;3252;52.540;13.290;2022-09-03T07:12:08;15.70;95.40
6439;DHT22;3252;52.540;13.290;2022-09-03T07:14:13;15.70;95.60
6439;DHT22;3252;52.540;13.290;2022-09-03T07:16:17;15.80;95.30
6439;DHT22;3252;52.540;13.290;2022-09-03T07:18:20;15.80;95.20
6439;DHT22;3252;52.540;13.290;2022-09-03T07:20:22;15.90;95.20
6439;DHT22;3252;52.540;13.290;2022-09-03T07:22:23;16.00;95.10
6439;DHT22;3252;52.540;13.290;2022-09-03T07:24:25;16.00;94.80
6439;DHT22;3252;52.540;13.290;2022-09-03T07:26:30;16.10;94.80
6439;DHT22;3252;52.540;13.290;2022-09-03T07:28:34;16.10;95.10
6439;DHT22;3252;52.540;13.290;2022-09-03T07:30:37;16.10;95.20
6439;DHT22;3252;52.540;13.290;2022-09-03T07:32:39;16.20;95.10
6439;DHT22;3252;52.540;13.290;2022-09-03T07:34:41;16.30;94.90
6439;DHT22;3252;52.540;13.290;2022-09-03T07:36:45;16.30;95.10
6439;DHT22;3252;52.540;13.290;2022-09-03T07:38:50;16.30;95.50
6439;DHT22;3252;52.540;13.290;2022-09-03T07:40:56;16.40;95.30
6439;DHT22;3252;52.540;13.290;2022-09-03T07:42:59;16.40;94.90
6439;DHT22;3252;52.540;13.290;2022-09-03T07:45:04;16.40;95.00
6439;DHT22;3252;52.540;13.290;2022-09-03T07:47:11;16.50;95.30
6439;DHT22;3252;52.540;13.290;2022-09-03T07:49:14;16.50;95.40
6439;DHT22;3252;52.540;13.290;2022-09-03T07:51:18;16.50;96.00
6439;DHT22;3252;52.540;13.290;2022-09-03T07:53:20;16.60;95.10
6439;DHT22;3252;52.540;13.290;2022-09-03T07:55:22;16.60;95.00
6439;DHT22;3252;52.540;13.290;2022-09-03T07:57:24;16.70;95.10
6439;DHT22;3252;52.540;13.290;2022-09-03T07:59:26;16.80;95.00
6439;DHT22;3252;52.540;13.290;2022-09-03T08:01:29;16.80;94.60
6439;DHT22;3252;52.540;13.290;2022-09-03T08:03:34;16.80;94.80
6439;DHT22;3252;52.540;13.290;2022-09-03T08:05:37;16.90;94.50
6439;DHT22;3252;52.540;13.290;2022-09-03T08:07:39;16.90;94.40
6439;DHT22;3252;52.540;13.290;2022-09-03T08:09:41;17.00;94.30
6439;DHT22;3252;52.540;13.290;2022-09-03T08:11:43;17.00;94.90
6439;DHT22;3252;52.540;13.290;2022-09-03T08:13:46;17.10;93.80
6439;DHT22;3252;52.540;13.290;2022-09-03T08:15:53;17.10;93.90
6439;DHT22;3252;52.540;13.290;2022-09-03T08:17:55;17.20;93.80
6439;DHT22;3252;52.540;13.290;2022-09-03T08:20:00;17.20;93.20
6439;DHT22;3252;52.540;13.290;2022-09-03T08:22:03;17.30;92.90
6439;DHT22;3252;52.540;13.290;2022-09-03T08:24:06;17.30;92.90
6439;DHT22;3252;52.540;13.290;2022-09-03T08:26:08;17.40;93.60
6439;DHT22;3252;52.540;13.290;2022-09-03T08:28:10;17.50;92.90
6439;DHT22;3252;52.540;13.290;2022-09-03T08:30:12;17.60;92.70
6439;DHT22;3252;52.540;13.290;2022-09-03T08:32:14;17.60;92.50
6439;DHT22;3252;52.540;13.290;2022-09-03T08:34:16;17.70;92.40
6439;DHT22;3252;52.540;13.290;2022-09-03T08:36:21;17.80;92.10
6439;DHT22;3252;52.540;13.290;2022-09-03T08:38:24;17.90;92.10
6439;DHT22;3252;52.540;13.290;2022-09-03T08:40:26;18.00;91.40
6439;DHT22;3252;52.540;13.290;2022-09-03T08:42:36;18.10;91.80
6439;DHT22;3252;52.540;13.290;2022-09-03T08:44:43;18.20;92.00
6439;DHT22;3252;52.540;13.290;2022-09-03T08:46:50;18.20;91.00
6439;DHT22;3252;52.540;13.290;2022-09-03T08:48:56;18.20;90.40
6439;DHT22;3252;52.540;13.290;2022-09-03T08:51:00;18.30;91.00
6439;DHT22;3252;52.540;13.290;2022-09-03T08:53:11;18.30;90.30
6439;DHT22;3252;52.540;13.290;2022-09-03T08:55:22;18.30;86.40
6439;DHT22;3252;52.540;13.290;2022-09-03T08:57:40;18.40;86.60
6439;DHT22;3252;52.540;13.290;2022-09-03T08:59:45;18.40;84.60
6439;DHT22;3252;52.540;13.290;2022-09-03T09:01:54;18.50;84.00
6439;DHT22;3252;52.540;13.290;2022-09-03T09:04:05;18.50;84.90
6439;DHT22;3252;52.540;13.290;2022-09-03T09:06:16;18.50;82.80
6439;DHT22;3252;52.540;13.290;2022-09-03T09:08:26;18.70;81.90
6439;DHT22;3252;52.540;13.290;2022-09-03T09:10:39;18.90;83.20
6439;DHT22;3252;52.540;13.290;2022-09-03T09:12:50;19.60;77.50
6439;DHT22;3252;52.540;13.290;2022-09-03T09:15:06;20.10;74.60
6439;DHT22;3252;52.540;13.290;2022-09-03T09:17:22;20.20;69.40
6439;DHT22;3252;52.540;13.290;2022-09-03T09:19:42;20.50;67.10
6439;DHT22;3252;52.540;13.290;2022-09-03T09:21:51;20.70;63.50
6439;DHT22;3252;52.540;13.290;2022-09-03T09:23:58;20.50;65.30
6439;DHT22;3252;52.540;13.290;2022-09-03T09:26:07;20.10;64.40
6439;DHT22;3252;52.540;13.290;2022-09-03T09:28:16;20.10;65.70
6439;DHT22;3252;52.540;13.290;2022-09-03T09:30:19;20.10;66.10
6439;DHT22;3252;52.540;13.290;2022-09-03T09:32:21;20.20;67.10
6439;DHT22;3252;52.540;13.290;2022-09-03T09:34:23;20.60;64.40
6439;DHT22;3252;52.540;13.290;2022-09-03T09:36:25;20.90;63.40
6439;DHT22;3252;52.540;13.290;2022-09-03T09:38:29;21.10;61.50
6439;DHT22;3252;52.540;13.290;2022-09-03T09:40:35;21.20;61.20
6439;DHT22;3252;52.540;13.290;2022-09-03T09:42:38;21.20;59.90
6439;DHT22;3252;52.540;13.290;2022-09-03T09:44:41;21.00;59.90
6439;DHT22;3252;52.540;13.290;2022-09-03T09:46:43;21.00;60.80
6439;DHT22;3252;52.540;13.290;2022-09-03T09:48:48;21.10;59.20
6439;DHT22;3252;52.540;13.290;2022-09-03T09:51:03;21.50;59.20
6439;DHT22;3252;52.540;13.290;2022-09-03T09:53:08;22.00;57.00
6439;DHT22;3252;52.540;13.290;2022-09-03T09:55:17;22.10;57.00
6439;DHT22;3252;52.540;13.290;2022-09-03T09:57:23;22.40;54.80
6439;DHT22;3252;52.540;13.290;2022-09-03T09:59:26;22.60;51.70
6439;DHT22;3252;52.540;13.290;2022-09-03T10:01:29;23.10;50.50
6439;DHT22;3252;52.540;13.290;2022-09-03T10:03:32;23.90;48.80
6439;DHT22;3252;52.540;13.290;2022-09-03T10:05:36;23.90;49.10
6439;DHT22;3252;52.540;13.290;2022-09-03T10:07:40;23.40;47.40
6439;DHT22;3252;52.540;13.290;2022-09-03T10:09:42;23.30;47.70
6439;DHT22;3252;52.540;13.290;2022-09-03T10:11:46;23.10;48.40
6439;DHT22;3252;52.540;13.290;2022-09-03T10:13:53;24.00;48.00
6439;DHT22;3252;52.540;13.290;2022-09-03T10:15:59;24.50;46.00
6439;DHT22;3252;52.540;13.290;2022-09-03T10:18:07;23.70;46.90
6439;DHT22;3252;52.540;13.290;2022-09-03T10:20:15;23.60;47.80
6439;DHT22;3252;52.540;13.290;2022-09-03T10:22:34;23.90;46.90
6439;DHT22;3252;52.540;13.290;2022-09-03T10:24:51;23.70;46.70
6439;DHT22;3252;52.540;13.290;2022-09-03T10:26:54;23.80;46.70
6439;DHT22;3252;52.540;13.290;2022-09-03T10:29:01;23.70;46.50
6439;DHT22;3252;52.540;13.290;2022-09-03T10:31:17;23.40;45.80
6439;DHT22;3252;52.540;13.290;2022-09-03T10:33:25;23.40;45.60
6439;DHT22;3252;52.540;13.290;2022-09-03T10:35:30;24.30;45.50
6439;DHT22;3252;52.540;13.290;2022-09-03T10:37:37;24.30;44.80
6439;DHT22;3252;52.540;13.290;2022-09-03T10:39:53;24.60;43.60
6439;DHT22;3252;52.540;13.290;2022-09-03T10:42:05;24.80;42.40
6439;DHT22;3252;52.540;13.290;2022-09-03T10:44:28;23.90;43.40
6439;DHT22;3252;52.540;13.290;2022-09-03T10:46:41;23.30;44.30
6439;DHT22;3252;52.540;13.290;2022-09-03T10:48:57;23.00;45.10
6439;DHT22;3252;52.540;13.290;2022-09-03T10:51:05;22.80;45.60
6439;DHT22;3252;52.540;13.290;2022-09-03T10:53:12;22.40;45.50
6439;DHT22;3252;52.540;13.290;2022-09-03T10:55:21;22.30;45.60
6439;DHT22;3252;52.540;13.290;2022-09-03T10:57:34;22.30;46.10
6439;DHT22;3252;52.540;13.290;2022-09-03T10:59:55;22.10;46.40
6439;DHT22;3252;52.540;13.290;2022-09-03T11:02:13;22.00;46.80
6439;DHT22;3252;52.540;13.290;2022-09-03T11:04:25;21.90;47.20
6439;DHT22;3252;52.540;13.290;2022-09-03T11:06:30;21.90;47.60
6439;DHT22;3252;52.540;13.290;2022-09-03T11:08:40;21.80;48.10
6439;DHT22;3252;52.540;13.290;2022-09-03T11:10:48;21.50;47.80
6439;DHT22;3252;52.540;13.290;2022-09-03T11:13:00;21.30;48.50
6439;DHT22;3252;52.540;13.290;2022-09-03T11:15:10;21.20;49.30
6439;DHT22;3252;52.540;13.290;2022-09-03T11:17:19;21.20;49.70
6439;DHT22;3252;52.540;13.290;2022-09-03T11:19:29;21.20;50.20
6439;DHT22;3252;52.540;13.290;2022-09-03T11:21:36;21.30;50.20
6439;DHT22;3252;52.540;13.290;2022-09-03T11:23:44;21.40;49.40
6439;DHT22;3252;52.540;13.290;2022-09-03T11:25:50;21.40;50.00
6439;DHT22;3252;52.540;13.290;2022-09-03T11:28:02;21.50;49.80
6439;DHT22;3252;52.540;13.290;2022-09-03T11:30:10;21.60;50.00
6439;DHT22;3252;52.540;13.290;2022-09-03T11:32:17;21.90;50.20
6439;DHT22;3252;52.540;13.290;2022-09-03T11:34:28;22.10;50.30
6439;DHT22;3252;52.540;13.290;2022-09-03T11:36:32;22.10;50.00
6439;DHT22;3252;52.540;13.290;2022-09-03T11:38:35;22.00;48.10
6439;DHT22;3252;52.540;13.290;2022-09-03T11:40:42;21.90;47.80
6439;DHT22;3252;52.540;13.290;2022-09-03T11:43:05;21.80;47.50
6439;DHT22;3252;52.540;13.290;2022-09-03T11:45:20;22.00;47.80
6439;DHT22;3252;52.540;13.290;2022-09-03T11:47:26;22.00;47.70
6439;DHT22;3252;52.540;13.290;2022-09-03T11:49:44;22.00;47.90
6439;DHT22;3252;52.540;13.290;2022-09-03T11:51:57;22.00;47.40
6439;DHT22;3252;52.540;13.290;2022-09-03T11:54:01;21.90;46.90
6439;DHT22;3252;52.540;13.290;2022-09-03T11:56:16;21.90;47.40
6439;DHT22;3252;52.540;13.290;2022-09-03T11:58:22;21.90;48.00
6439;DHT22;3252;52.540;13.290;2022-09-03T12:00:27;21.70;47.30
6439;DHT22;3252;52.540;13.290;2022-09-03T12:02:31;21.70;47.80
6439;DHT22;3252;52.540;13.290;2022-09-03T12:04:43;21.70;48.10
6439;DHT22;3252;52.540;13.290;2022-09-03T12:07:08;21.60;47.90
6439;DHT22;3252;52.540;13.290;2022-09-03T12:09:28;21.60;47.80
6439;DHT22;3252;52.540;13.290;2022-09-03T12:11:45;21.60;48.50
6439;DHT22;3252;52.540;13.290;2022-09-03T12:13:55;21.60;48.60
6439;DHT22;3252;52.540;13.290;2022-09-03T12:16:21;21.60;48.60
6439;DHT22;3252;52.540;13.290;2022-09-03T12:18:28;21.60;48.70
6439;DHT22;3252;52.540;13.290;2022-09-03T12:20:31;21.50;49.20
6439;DHT22;3252;52.540;13.290;2022-09-03T12:22:36;21.50;49.50
6439;DHT22;3252;52.540;13.290;2022-09-03T12:24:39;21.50;49.60
6439;DHT22;3252;52.540;13.290;2022-09-03T12:26:44;21.40;49.20
6439;DHT22;3252;52.540;13.290;2022-09-03T12:28:48;21.40;49.40
6439;DHT22;3252;52.540;13.290;2022-09-03T12:30:51;21.30;49.10
6439;DHT22;3252;52.540;13.290;2022-09-03T12:33:04;21.30;49.30
6439;DHT22;3252;52.540;13.290;2022-09-03T12:35:11;21.30;49.00
6439;DHT22;3252;52.540;13.290;2022-09-03T12:37:19;21.20;48.40
6439;DHT22;3252;52.540;13.290;2022-09-03T12:39:23;21.10;48.60
6439;DHT22;3252;52.540;13.290;2022-09-03T12:41:27;21.10;48.50
6439;DHT22;3252;52.540;13.290;2022-09-03T12:43:30;21.10;48.70
6439;DHT22;3252;52.540;13.290;2022-09-03T12:45:41;21.10;47.70
6439;DHT22;3252;52.540;13.290;2022-09-03T12:47:44;21.20;47.20
6439;DHT22;3252;52.540;13.290;2022-09-03T12:49:48;21.30;46.90
6439;DHT22;3252;52.540;13.290;2022-09-03T12:51:51;21.30;46.00
6439;DHT22;3252;52.540;13.290;2022-09-03T12:53:59;21.40;46.20
6439;DHT22;3252;52.540;13.290;2022-09-03T12:56:02;21.50;46.50
6439;DHT22;3252;52.540;13.290;2022-09-03T12:58:08;21.60;46.10
6439;DHT22;3252;52.540;13.290;2022-09-03T13:00:14;21.60;46.50
6439;DHT22;3252;52.540;13.290;2022-09-03T13:02:21;21.70;46.80
6439;DHT22;3252;52.540;13.290;2022-09-03T13:04:27;21.70;46.50
6439;DHT22;3252;52.540;13.290;2022-09-03T13:06:43;21.70;46.00
6439;DHT22;3252;52.540;13.290;2022-09-03T13:08:51;21.70;46.00
6439;DHT22;3252;52.540;13.290;2022-09-03T13:10:58;21.90;45.90
6439;DHT22;3252;52.540;13.290;2022-09-03T13:13:16;22.00;46.00
6439;DHT22;3252;52.540;13.290;2022-09-03T13:15:22;22.10;45.80
6439;DHT22;3252;52.540;13.290;2022-09-03T13:17:43;22.10;45.30
6439;DHT22;3252;52.540;13.290;2022-09-03T13:20:04;22.00;45.40
6439;DHT22;3252;52.540;13.290;2022-09-03T13:22:20;21.90;45.20
6439;DHT22;3252;52.540;13.290;2022-09-03T13:24:42;21.90;45.70
6439;DHT22;3252;52.540;13.290;2022-09-03T13:26:55;22.00;45.50
6439;DHT22;3252;52.540;13.290;2022-09-03T13:29:36;22.00;44.80
6439;DHT22;3252;52.540;13.290;2022-09-03T13:31:43;22.00;45.00
6439;DHT22;3252;52.540;13.290;2022-09-03T13:33:49;22.00;45.10